Time;durP1;ratioP1;P1;durP2;ratioP2;P2;SDS_P1;SDS_P2;PMS_P1;PMS_P2;Temp;Humidity;BMP_temperature;BMP_pressure;BME280_temperature;BME280_humidity;BME280_pressure;Samples;Min_cycle;Max_cycle;Signal;HPM_P1;HPM_P2
2022/03/26 00:00:21;;;;;;;;;;;;;;;;;;5102958;28;20385;-81
2022/03/26 00:02:47;;;;;;;;;;;;;;;;;;5102613;28;19941;-80
2022/03/26 00:05:13;;;;;;;;;;;;;;;;;;5102302;28;19952;-82
2022/03/26 00:07:38;;;;;;;;;;;;;;;;;;5101579;28;19941;-79
2022/03/26 00:10:04;;;;;;;;;;;;;;;;;;5102185;28;19938;-79
2022/03/26 00:12:29;;;;;;;;;;;;;;;;;;5102154;28;19922;-79
2022/03/26 00:14:55;;;;;;;;;;;;;;;;;;5110194;27;19968;-79
2022/03/26 00:17:20;;;;;;;;;;;;;;;;;;5140429;27;20408;-79
2022/03/26 00:19:45;;;;;;;;;;;;;;;;;;5140155;27;19916;-80
2022/03/26 00:22:11;;;;;;;;;;;;;;;;;;5142460;27;19930;-80
2022/03/26 00:24:37;;;;;;;;;;;;;;;;;;5143422;27;19915;-80
2022/03/26 00:27:05;;;;;;;;;;;;;;;;;;5143114;27;19922;-80
2022/03/26 00:29:31;;;;;;;;;;;;;;;;;;5143899;27;19964;-81
2022/03/26 00:31:56;;;;;;;;;;;;;;;;;;5142711;27;20331;-79
2022/03/26 00:34:21;;;;;;;;;;;;;;;;;;5143330;27;19967;-81
2022/03/26 00:36:46;;;;;;;;;;;;;;;;;;5140090;27;19915;-79
2022/03/26 00:39:12;;;;;;;;;;;;;;;;;;5140131;27;19921;-79
2022/03/26 00:41:37;;;;;;;;;;;;;;;;;;5139795;27;20003;-79
2022/03/26 00:44:03;;;;;;;;;;;;;;;;;;5134278;27;19915;-79
2022/03/26 00:46:28;;;;;;;;;;;;;;;;;;5119052;28;20296;-79
2022/03/26 00:48:56;;;;;;;;;;;;;;;;;;5118730;27;19915;-79
2022/03/26 00:51:21;;;;;;;;;;;;;;;;;;5120015;27;19934;-79
2022/03/26 00:53:49;;;;;;;;;;;;;;;;;;5121455;28;19919;-79
2022/03/26 00:56:14;;;;;;;;;;;;;;;;;;5121026;27;19916;-79
2022/03/26 00:58:40;;;;;;;;;;;;;;;;;;5121014;28;19923;-79
2022/03/26 01:01:07;;;;;;;;;;;;;;;;;;5102012;28;19947;-79
2022/03/26 01:03:32;;;;;;;;;;;;;;;;;;5119312;28;19983;-79
2022/03/26 01:05:58;;;;;;;;;;;;;;;;;;5120298;28;19947;-78
2022/03/26 01:08:23;;;;;;;;;;;;;;;;;;5118413;28;19966;-78
2022/03/26 01:10:48;;;;;;;;;;;;;;;;;;5118426;28;19915;-81
2022/03/26 01:13:16;;;;;;;;;;;;;;;;;;5118093;28;20284;-78
2022/03/26 01:15:41;;;;;;;;;;;;;;;;;;5133554;27;20400;-78
2022/03/26 01:18:07;;;;;;;;;;;;;;;;;;5138101;27;19922;-79
2022/03/26 01:20:33;;;;;;;;;;;;;;;;;;5137057;27;19923;-79
2022/03/26 01:22:58;;;;;;;;;;;;;;;;;;5140513;27;19920;-79
2022/03/26 01:25:24;;;;;;;;;;;;;;;;;;5140459;27;19947;-82
2022/03/26 01:27:50;;;;;;;;;;;;;;;;;;5139217;27;19916;-79
2022/03/26 01:30:15;;;;;;;;;;;;;;;;;;5140996;27;19972;-81
2022/03/26 01:32:43;;;;;;;;;;;;;;;;;;5141121;27;19923;-82
2022/03/26 01:35:09;;;;;;;;;;;;;;;;;;5141726;27;19915;-81
2022/03/26 01:37:36;;;;;;;;;;;;;;;;;;5142166;27;19923;-79
2022/03/26 01:40:01;;;;;;;;;;;;;;;;;;5141761;27;19983;-79
2022/03/26 01:42:27;;;;;;;;;;;;;;;;;;5141529;27;19984;-80
2022/03/26 01:44:52;;;;;;;;;;;;;;;;;;5140758;27;19923;-82
2022/03/26 01:47:18;;;;;;;;;;;;;;;;;;5141563;27;19947;-81
2022/03/26 01:49:44;;;;;;;;;;;;;;;;;;5140464;27;19951;-79
2022/03/26 01:52:10;;;;;;;;;;;;;;;;;;5138898;27;19923;-79
2022/03/26 01:54:37;;;;;;;;;;;;;;;;;;5140341;27;19915;-79
2022/03/26 01:57:03;;;;;;;;;;;;;;;;;;5138161;27;19916;-80
2022/03/26 01:59:28;;;;;;;;;;;;;;;;;;5120676;28;19978;-81
2022/03/26 02:01:54;;;;;;;;;;;;;;;;;;5137956;28;19919;-79
2022/03/26 02:04:22;;;;;;;;;;;;;;;;;;5139136;27;20311;-79
2022/03/26 02:06:48;;;;;;;;;;;;;;;;;;5139183;27;19947;-79
2022/03/26 02:09:14;;;;;;;;;;;;;;;;;;5139802;27;19916;-79
2022/03/26 02:11:41;;;;;;;;;;;;;;;;;;5137513;28;19919;-79
2022/03/26 02:14:08;;;;;;;;;;;;;;;;;;5142989;27;19915;-80
2022/03/26 02:16:35;;;;;;;;;;;;;;;;;;5143218;27;20019;-78
2022/03/26 02:19:00;;;;;;;;;;;;;;;;;;5110031;27;19916;-78
2022/03/26 02:21:25;;;;;;;;;;;;;;;;;;5100811;28;20318;-79
2022/03/26 02:23:51;;;;;;;;;;;;;;;;;;5100114;28;19967;-78
2022/03/26 02:26:18;;;;;;;;;;;;;;;;;;5100795;28;19965;-78
2022/03/26 02:28:44;;;;;;;;;;;;;;;;;;5100329;28;19915;-80
2022/03/26 02:31:12;;;;;;;;;;;;;;;;;;5102313;28;19952;-80
2022/03/26 02:33:38;;;;;;;;;;;;;;;;;;5103754;28;19979;-79
2022/03/26 02:36:04;;;;;;;;;;;;;;;;;;5103895;28;19923;-80
2022/03/26 02:38:29;;;;;;;;;;;;;;;;;;5103510;28;20293;-79
2022/03/26 02:40:55;;;;;;;;;;;;;;;;;;5105045;28;19947;-80
2022/03/26 02:43:20;;;;;;;;;;;;;;;;;;5105145;28;19916;-81
2022/03/26 02:45:46;;;;;;;;;;;;;;;;;;5087098;28;19956;-81
2022/03/26 02:48:13;;;;;;;;;;;;;;;;;;5134198;27;19920;-81
2022/03/26 02:50:44;;;;;;;;;;;;;;;;;;5145543;27;19922;-80
2022/03/26 02:53:11;;;;;;;;;;;;;;;;;;5145542;27;19938;-80
2022/03/26 02:55:37;;;;;;;;;;;;;;;;;;5144658;27;19965;-79
2022/03/26 02:58:03;;;;;;;;;;;;;;;;;;5145447;27;19919;-80
2022/03/26 03:00:28;;;;;;;;;;;;;;;;;;5143930;27;20445;-80
2022/03/26 03:02:54;;;;;;;;;;;;;;;;;;5145517;27;20006;-80
2022/03/26 03:05:19;;;;;;;;;;;;;;;;;;5145043;27;20284;-80
2022/03/26 03:07:45;;;;;;;;;;;;;;;;;;5143251;27;19915;-79
2022/03/26 03:10:12;;;;;;;;;;;;;;;;;;5144473;27;19915;-79
2022/03/26 03:12:38;;;;;;;;;;;;;;;;;;5143933;27;19916;-79
2022/03/26 03:15:03;;;;;;;;;;;;;;;;;;5142762;27;19957;-79
2022/03/26 03:17:28;;;;;;;;;;;;;;;;;;5136428;27;19920;-79
2022/03/26 03:19:54;;;;;;;;;;;;;;;;;;5122977;28;19922;-78
2022/03/26 03:22:19;;;;;;;;;;;;;;;;;;5123967;27;19920;-80
2022/03/26 03:24:44;;;;;;;;;;;;;;;;;;5122519;28;19920;-79
2022/03/26 03:27:10;;;;;;;;;;;;;;;;;;5123457;28;19915;-82
2022/03/26 03:29:35;;;;;;;;;;;;;;;;;;5121062;28;19916;-79
2022/03/26 03:32:01;;;;;;;;;;;;;;;;;;5122506;28;19922;-79
2022/03/26 03:34:26;;;;;;;;;;;;;;;;;;5120631;28;20437;-79
2022/03/26 03:36:51;;;;;;;;;;;;;;;;;;5122194;28;19915;-79
2022/03/26 03:39:18;;;;;;;;;;;;;;;;;;5121534;28;19922;-79
2022/03/26 03:41:43;;;;;;;;;;;;;;;;;;5121311;28;19920;-79
2022/03/26 03:44:10;;;;;;;;;;;;;;;;;;5125089;27;19960;-80
2022/03/26 03:46:35;;;;;;;;;;;;;;;;;;5141397;27;19951;-79
2022/03/26 03:49:01;;;;;;;;;;;;;;;;;;5142831;27;19920;-79
2022/03/26 03:51:26;;;;;;;;;;;;;;;;;;5142948;27;20037;-80
2022/03/26 03:53:52;;;;;;;;;;;;;;;;;;5141987;27;19919;-80
2022/03/26 03:56:17;;;;;;;;;;;;;;;;;;5142523;27;19916;-80
2022/03/26 03:58:42;;;;;;;;;;;;;;;;;;5140351;27;19926;-79
2022/03/26 04:01:07;;;;;;;;;;;;;;;;;;5142092;27;20379;-79
2022/03/26 04:03:33;;;;;;;;;;;;;;;;;;5141275;27;19915;-79
2022/03/26 04:05:59;;;;;;;;;;;;;;;;;;5141557;27;19916;-79
2022/03/26 04:08:24;;;;;;;;;;;;;;;;;;5140173;27;20013;-79
2022/03/26 04:10:49;;;;;;;;;;;;;;;;;;5141953;27;19974;-79
2022/03/26 04:13:15;;;;;;;;;;;;;;;;;;5139537;27;20010;-79
2022/03/26 04:15:40;;;;;;;;;;;;;;;;;;5114349;27;20353;-79
2022/03/26 04:18:06;;;;;;;;;;;;;;;;;;5099770;28;19923;-80
2022/03/26 04:20:32;;;;;;;;;;;;;;;;;;5098239;28;19926;-79
2022/03/26 04:22:58;;;;;;;;;;;;;;;;;;5099319;28;20022;-79
2022/03/26 04:25:23;;;;;;;;;;;;;;;;;;5099825;28;19947;-79
2022/03/26 04:27:49;;;;;;;;;;;;;;;;;;5117829;27;20365;-82
2022/03/26 04:30:14;;;;;;;;;;;;;;;;;;5120373;27;20381;-79
2022/03/26 04:32:40;;;;;;;;;;;;;;;;;;5120427;28;20006;-80
2022/03/26 04:35:05;;;;;;;;;;;;;;;;;;5123413;28;20003;-81
2022/03/26 04:37:34;;;;;;;;;;;;;;;;;;5121284;28;20004;-81
2022/03/26 04:39:59;;;;;;;;;;;;;;;;;;5120947;28;20388;-82
2022/03/26 04:42:24;;;;;;;;;;;;;;;;;;5120220;28;19920;-80
2022/03/26 04:44:50;;;;;;;;;;;;;;;;;;5121606;28;19916;-79
2022/03/26 04:47:15;;;;;;;;;;;;;;;;;;5122997;27;20411;-79
2022/03/26 04:49:41;;;;;;;;;;;;;;;;;;5139982;27;19926;-79
2022/03/26 04:52:06;;;;;;;;;;;;;;;;;;5140869;27;19915;-79
2022/03/26 04:54:32;;;;;;;;;;;;;;;;;;5139114;27;19922;-81
2022/03/26 04:56:57;;;;;;;;;;;;;;;;;;5140637;27;19963;-80
2022/03/26 04:59:22;;;;;;;;;;;;;;;;;;5139765;27;20365;-79
2022/03/26 05:01:48;;;;;;;;;;;;;;;;;;5140257;27;19919;-78
2022/03/26 05:04:14;;;;;;;;;;;;;;;;;;5142643;27;19915;-79
2022/03/26 05:06:39;;;;;;;;;;;;;;;;;;5141296;27;19922;-79
2022/03/26 05:09:05;;;;;;;;;;;;;;;;;;5140439;27;19943;-82
2022/03/26 05:11:30;;;;;;;;;;;;;;;;;;5140207;27;20401;-79
2022/03/26 05:13:55;;;;;;;;;;;;;;;;;;5139612;27;19916;-79
2022/03/26 05:16:21;;;;;;;;;;;;;;;;;;5140612;27;19925;-79
2022/03/26 05:18:46;;;;;;;;;;;;;;;;;;5116937;27;19994;-79
2022/03/26 05:21:11;;;;;;;;;;;;;;;;;;5101543;28;20309;-79
2022/03/26 05:23:37;;;;;;;;;;;;;;;;;;5100954;28;19916;-79
2022/03/26 05:26:03;;;;;;;;;;;;;;;;;;5090519;27;20360;-81
2022/03/26 05:28:29;;;;;;;;;;;;;;;;;;5142610;27;20006;-80
2022/03/26 05:30:54;;;;;;;;;;;;;;;;;;5141375;27;19954;-81
2022/03/26 05:33:20;;;;;;;;;;;;;;;;;;5141257;27;19919;-80
2022/03/26 05:35:45;;;;;;;;;;;;;;;;;;5141240;27;19923;-78
2022/03/26 05:38:11;;;;;;;;;;;;;;;;;;5139730;27;19920;-78
2022/03/26 05:40:36;;;;;;;;;;;;;;;;;;5140741;27;19915;-80
2022/03/26 05:43:01;;;;;;;;;;;;;;;;;;5139225;27;19945;-80
2022/03/26 05:45:27;;;;;;;;;;;;;;;;;;5120090;28;19922;-78
2022/03/26 05:47:55;;;;;;;;;;;;;;;;;;5118128;28;20304;-79
2022/03/26 05:50:21;;;;;;;;;;;;;;;;;;5120114;28;20344;-79
2022/03/26 05:52:46;;;;;;;;;;;;;;;;;;5119723;28;19916;-80
2022/03/26 05:55:16;;;;;;;;;;;;;;;;;;5118059;28;19916;-82
2022/03/26 05:57:41;;;;;;;;;;;;;;;;;;5119224;28;20296;-80
2022/03/26 06:00:07;;;;;;;;;;;;;;;;;;5121604;28;19951;-81
2022/03/26 06:02:32;;;;;;;;;;;;;;;;;;5121051;28;20342;-81
2022/03/26 06:04:58;;;;;;;;;;;;;;;;;;5119897;28;19921;-79
2022/03/26 06:07:23;;;;;;;;;;;;;;;;;;5120544;28;19923;-81
2022/03/26 06:09:48;;;;;;;;;;;;;;;;;;5119155;28;19988;-80
2022/03/26 06:12:14;;;;;;;;;;;;;;;;;;5118444;28;19922;-79
2022/03/26 06:14:40;;;;;;;;;;;;;;;;;;5119095;28;19973;-79
2022/03/26 06:17:05;;;;;;;;;;;;;;;;;;5120768;28;19916;-79
2022/03/26 06:19:31;;;;;;;;;;;;;;;;;;5119745;28;19926;-79
2022/03/26 06:21:56;;;;;;;;;;;;;;;;;;5119912;28;20056;-78
2022/03/26 06:24:21;;;;;;;;;;;;;;;;;;5120616;28;19942;-82
2022/03/26 06:26:48;;;;;;;;;;;;;;;;;;5117175;28;19915;-78
2022/03/26 06:29:14;;;;;;;;;;;;;;;;;;5119155;28;20369;-78
2022/03/26 06:31:39;;;;;;;;;;;;;;;;;;5118986;28;19962;-78
2022/03/26 06:34:04;;;;;;;;;;;;;;;;;;5117528;28;19920;-80
2022/03/26 06:36:30;;;;;;;;;;;;;;;;;;5120535;28;19916;-81
2022/03/26 06:38:55;;;;;;;;;;;;;;;;;;5118938;28;20405;-81
2022/03/26 06:41:21;;;;;;;;;;;;;;;;;;5118136;28;20293;-81
2022/03/26 06:43:46;;;;;;;;;;;;;;;;;;5118805;28;19915;-81
2022/03/26 06:46:12;;;;;;;;;;;;;;;;;;5121058;28;19973;-83
2022/03/26 06:48:38;;;;;;;;;;;;;;;;;;5120399;28;19979;-81
2022/03/26 06:51:04;;;;;;;;;;;;;;;;;;5121209;28;19922;-79
2022/03/26 06:53:30;;;;;;;;;;;;;;;;;;5118043;28;19916;-79
2022/03/26 06:55:55;;;;;;;;;;;;;;;;;;5120194;28;19922;-80
2022/03/26 06:58:21;;;;;;;;;;;;;;;;;;5114454;27;20369;-77
2022/03/26 07:00:46;;;;;;;;;;;;;;;;;;5117762;28;19920;-79
2022/03/26 07:03:11;;;;;;;;;;;;;;;;;;5121821;28;19927;-79
2022/03/26 07:05:37;;;;;;;;;;;;;;;;;;5124718;28;19923;-80
2022/03/26 07:08:03;;;;;;;;;;;;;;;;;;5124355;28;20335;-80
2022/03/26 07:10:28;;;;;;;;;;;;;;;;;;5123152;28;19916;-79
2022/03/26 07:12:54;;;;;;;;;;;;;;;;;;5122412;28;19916;-79
2022/03/26 07:15:19;;;;;;;;;;;;;;;;;;5135105;27;19938;-80
2022/03/26 07:17:44;;;;;;;;;;;;;;;;;;5126070;27;19962;-80
2022/03/26 07:20:11;;;;;;;;;;;;;;;;;;5143348;27;19923;-81
2022/03/26 07:22:36;;;;;;;;;;;;;;;;;;5147400;27;19920;-81
2022/03/26 07:25:04;;;;;;;;;;;;;;;;;;5147855;27;19922;-81
2022/03/26 07:27:30;;;;;;;;;;;;;;;;;;5114107;27;19966;-80
2022/03/26 07:29:55;;;;;;;;;;;;;;;;;;5106034;28;19951;-80
2022/03/26 07:32:22;;;;;;;;;;;;;;;;;;5105497;28;19927;-79
2022/03/26 07:34:48;;;;;;;;;;;;;;;;;;5103217;28;19927;-80
2022/03/26 07:37:13;;;;;;;;;;;;;;;;;;5104328;28;20324;-80
2022/03/26 07:39:39;;;;;;;;;;;;;;;;;;5103955;28;19916;-79
2022/03/26 07:42:04;;;;;;;;;;;;;;;;;;5104584;28;19971;-79
2022/03/26 07:44:30;;;;;;;;;;;;;;;;;;5103568;28;19920;-81
2022/03/26 07:46:55;;;;;;;;;;;;;;;;;;5106836;28;19980;-81
2022/03/26 07:49:20;;;;;;;;;;;;;;;;;;5123576;28;19923;-79
2022/03/26 07:51:45;;;;;;;;;;;;;;;;;;5123376;28;19923;-79
2022/03/26 07:54:11;;;;;;;;;;;;;;;;;;5122577;28;19920;-79
2022/03/26 07:56:37;;;;;;;;;;;;;;;;;;5123194;28;19916;-80
2022/03/26 07:59:02;;;;;;;;;;;;;;;;;;5121214;28;20300;-79
2022/03/26 08:01:28;;;;;;;;;;;;;;;;;;5122055;28;19996;-79
2022/03/26 08:03:54;;;;;;;;;;;;;;;;;;5122111;28;20381;-79
2022/03/26 08:06:21;;;;;;;;;;;;;;;;;;5122012;27;19916;-79
2022/03/26 08:08:46;;;;;;;;;;;;;;;;;;5120430;28;19953;-79
2022/03/26 08:11:11;;;;;;;;;;;;;;;;;;5121772;28;19920;-79
2022/03/26 08:13:37;;;;;;;;;;;;;;;;;;5121587;28;19915;-79
2022/03/26 08:16:02;;;;;;;;;;;;;;;;;;5119556;28;20027;-80
2022/03/26 08:18:27;;;;;;;;;;;;;;;;;;5121481;28;19923;-79
2022/03/26 08:20:53;;;;;;;;;;;;;;;;;;5119345;28;20435;-80
2022/03/26 08:23:18;;;;;;;;;;;;;;;;;;5120598;27;19952;-79
2022/03/26 08:28:27;;;;;;;;;;;;;;;;;;5121547;28;20345;-79
2022/03/26 08:30:52;;;;;;;;;;;;;;;;;;5121722;28;19960;-80
2022/03/26 08:33:18;;;;;;;;;;;;;;;;;;5121101;28;20002;-81
2022/03/26 08:35:43;;;;;;;;;;;;;;;;;;5120752;28;19923;-79
2022/03/26 08:38:08;;;;;;;;;;;;;;;;;;5120443;28;19923;-79
2022/03/26 08:40:34;;;;;;;;;;;;;;;;;;5120110;28;19915;-79
2022/03/26 08:43:00;;;;;;;;;;;;;;;;;;5118202;28;20402;-79
2022/03/26 08:45:26;;;;;;;;;;;;;;;;;;5119415;28;19924;-79
2022/03/26 08:47:51;;;;;;;;;;;;;;;;;;5107755;28;19945;-79
2022/03/26 08:50:17;;;;;;;;;;;;;;;;;;5098995;28;19916;-80
2022/03/26 08:52:47;;;;;;;;;;;;;;;;;;5098957;28;19916;-79
2022/03/26 08:55:13;;;;;;;;;;;;;;;;;;5097662;28;19963;-79
2022/03/26 08:57:38;;;;;;;;;;;;;;;;;;5098919;28;20003;-79
2022/03/26 09:00:04;;;;;;;;;;;;;;;;;;5099182;28;20422;-81
2022/03/26 09:02:29;;;;;;;;;;;;;;;;;;5097986;28;19926;-80
2022/03/26 09:04:56;;;;;;;;;;;;;;;;;;5096551;28;19916;-81
2022/03/26 09:07:21;;;;;;;;;;;;;;;;;;5100824;28;19957;-81
2022/03/26 09:09:46;;;;;;;;;;;;;;;;;;5099961;28;20299;-81
2022/03/26 09:12:12;;;;;;;;;;;;;;;;;;5100884;28;19968;-80
2022/03/26 09:14:37;;;;;;;;;;;;;;;;;;5100407;28;19917;-79
2022/03/26 09:17:03;;;;;;;;;;;;;;;;;;5100132;28;19930;-79
2022/03/26 09:19:29;;;;;;;;;;;;;;;;;;5098132;28;19916;-81
2022/03/26 09:21:54;;;;;;;;;;;;;;;;;;5098432;28;19974;-80
2022/03/26 09:24:19;;;;;;;;;;;;;;;;;;5100684;28;19969;-80
2022/03/26 09:26:45;;;;;;;;;;;;;;;;;;5100259;28;19916;-80
2022/03/26 09:29:11;;;;;;;;;;;;;;;;;;5100610;28;20053;-82
2022/03/26 09:31:36;;;;;;;;;;;;;;;;;;5100946;28;19923;-80
2022/03/26 09:34:01;;;;;;;;;;;;;;;;;;5095737;28;19924;-80
2022/03/26 09:36:27;;;;;;;;;;;;;;;;;;5100768;28;19985;-80
2022/03/26 09:38:52;;;;;;;;;;;;;;;;;;5096831;28;19923;-77
2022/03/26 09:41:19;;;;;;;;;;;;;;;;;;5094841;28;19955;-77
2022/03/26 09:43:44;;;;;;;;;;;;;;;;;;5094954;28;19923;-79
2022/03/26 09:46:10;;;;;;;;;;;;;;;;;;5104914;28;20293;-82
2022/03/26 09:48:36;;;;;;;;;;;;;;;;;;5115301;28;19958;-78
2022/03/26 09:51:03;;;;;;;;;;;;;;;;;;5115967;28;19919;-77
2022/03/26 09:53:28;;;;;;;;;;;;;;;;;;5115404;28;19950;-77
2022/03/26 09:55:54;;;;;;;;;;;;;;;;;;5114823;28;20327;-78
2022/03/26 09:58:19;;;;;;;;;;;;;;;;;;5096215;28;19962;-78
2022/03/26 10:00:45;;;;;;;;;;;;;;;;;;5095976;28;19916;-81
2022/03/26 10:03:10;;;;;;;;;;;;;;;;;;5094300;28;19920;-78
2022/03/26 10:05:35;;;;;;;;;;;;;;;;;;5095969;28;20447;-77
2022/03/26 10:08:27;;;;;;;;;;;;;;;;;;5096729;28;19919;-78
2022/03/26 10:10:52;;;;;;;;;;;;;;;;;;5094732;28;19920;-78
2022/03/26 10:13:32;;;;;;;;;;;;;;;;;;5095052;28;20018;-78
2022/03/26 10:16:01;;;;;;;;;;;;;;;;;;5116515;28;19916;-78
2022/03/26 10:18:31;;;;;;;;;;;;;;;;;;5114767;28;19941;-78
2022/03/26 10:20:57;;;;;;;;;;;;;;;;;;5116334;28;19922;-77
2022/03/26 10:23:29;;;;;;;;;;;;;;;;;;5117019;28;19960;-80
2022/03/26 10:26:04;;;;;;;;;;;;;;;;;;5115414;28;19933;-78
2022/03/26 10:28:30;;;;;;;;;;;;;;;;;;5115215;28;20442;-77
2022/03/26 10:34:00;;;;;;;;;;;;;;;;;;5115266;28;19919;-78
2022/03/26 10:36:25;;;;;;;;;;;;;;;;;;5118348;28;20296;-79
2022/03/26 10:38:51;;;;;;;;;;;;;;;;;;5120707;28;19915;-79
2022/03/26 10:41:20;;;;;;;;;;;;;;;;;;5119890;28;19922;-78
2022/03/26 10:43:45;;;;;;;;;;;;;;;;;;5116689;28;19916;-79
2022/03/26 10:46:10;;;;;;;;;;;;;;;;;;5117259;28;19916;-80
2022/03/26 10:48:36;;;;;;;;;;;;;;;;;;5116626;28;19916;-77
2022/03/26 10:51:15;;;;;;;;;;;;;;;;;;5117920;28;19926;-77
2022/03/26 10:53:46;;;;;;;;;;;;;;;;;;5117698;28;19961;-77
2022/03/26 10:56:12;;;;;;;;;;;;;;;;;;5117616;28;19920;-79
2022/03/26 10:58:38;;;;;;;;;;;;;;;;;;5116347;28;19922;-77
2022/03/26 11:01:05;;;;;;;;;;;;;;;;;;5117517;28;20308;-77
2022/03/26 11:03:30;;;;;;;;;;;;;;;;;;5117224;28;19920;-77
2022/03/26 11:05:57;;;;;;;;;;;;;;;;;;5117429;28;19939;-77
2022/03/26 11:08:23;;;;;;;;;;;;;;;;;;5117566;28;19969;-77
2022/03/26 11:10:50;;;;;;;;;;;;;;;;;;5117766;28;19916;-77
2022/03/26 11:13:17;;;;;;;;;;;;;;;;;;5116288;28;20365;-77
2022/03/26 11:15:46;;;;;;;;;;;;;;;;;;5116142;28;20373;-77
2022/03/26 11:18:11;;;;;;;;;;;;;;;;;;5083062;28;20345;-77
2022/03/26 11:20:37;;;;;;;;;;;;;;;;;;5097965;28;19916;-77
2022/03/26 11:23:22;;;;;;;;;;;;;;;;;;5097672;28;19920;-77
2022/03/26 11:25:53;;;;;;;;;;;;;;;;;;5097408;28;20388;-78
2022/03/26 11:28:26;;;;;;;;;;;;;;;;;;5097950;28;19928;-77
2022/03/26 11:30:57;;;;;;;;;;;;;;;;;;5097467;28;19916;-78
2022/03/26 11:33:22;;;;;;;;;;;;;;;;;;5096413;28;19989;-78
2022/03/26 11:35:55;;;;;;;;;;;;;;;;;;5097036;28;20369;-78
2022/03/26 11:38:21;;;;;;;;;;;;;;;;;;5097003;28;19916;-78
2022/03/26 11:40:55;;;;;;;;;;;;;;;;;;5095561;28;19922;-79
2022/03/26 11:43:39;;;;;;;;;;;;;;;;;;5095288;28;19966;-78
2022/03/26 11:51:35;;;;;;;;;;;;;;;;;;5137686;27;19962;-79
2022/03/26 11:54:05;;;;;;;;;;;;;;;;;;5137151;27;19961;-78
2022/03/26 11:56:31;;;;;;;;;;;;;;;;;;5136727;27;20376;-78
2022/03/26 11:59:06;;;;;;;;;;;;;;;;;;5136241;27;19960;-78
2022/03/26 12:01:38;;;;;;;;;;;;;;;;;;5111891;27;19920;-78
2022/03/26 12:04:10;;;;;;;;;;;;;;;;;;5095055;28;19916;-78
2022/03/26 12:06:44;;;;;;;;;;;;;;;;;;5096082;28;19995;-79
2022/03/26 12:09:11;;;;;;;;;;;;;;;;;;5095096;28;19915;-79
2022/03/26 12:11:37;;;;;;;;;;;;;;;;;;5095955;28;20019;-78
2022/03/26 12:14:09;;;;;;;;;;;;;;;;;;5112095;27;19947;-78
2022/03/26 12:16:49;;;;;;;;;;;;;;;;;;5137845;27;19922;-79
2022/03/26 12:19:33;;;;;;;;;;;;;;;;;;5141583;27;19947;-80
2022/03/26 12:21:58;;;;;;;;;;;;;;;;;;5142669;27;19926;-79
2022/03/26 12:24:28;;;;;;;;;;;;;;;;;;5139177;27;19916;-77
2022/03/26 12:26:54;;;;;;;;;;;;;;;;;;5136249;27;19915;-77
2022/03/26 12:29:20;;;;;;;;;;;;;;;;;;5134965;27;19923;-78
2022/03/26 12:31:49;;;;;;;;;;;;;;;;;;5134881;27;19940;-78
2022/03/26 12:34:15;;;;;;;;;;;;;;;;;;5134703;27;19934;-77
2022/03/26 12:36:41;;;;;;;;;;;;;;;;;;5118277;27;20010;-77
2022/03/26 12:39:07;;;;;;;;;;;;;;;;;;5144843;27;19915;-81
2022/03/26 12:41:32;;;;;;;;;;;;;;;;;;5140041;27;19946;-78
2022/03/26 12:43:59;;;;;;;;;;;;;;;;;;5127752;27;20293;-78
2022/03/26 12:46:34;;;;;;;;;;;;;;;;;;5115680;28;19966;-78
2022/03/26 12:49:05;;;;;;;;;;;;;;;;;;5114632;28;19920;-77
2022/03/26 12:51:30;;;;;;;;;;;;;;;;;;5118442;28;19916;-79
2022/03/26 12:53:58;;;;;;;;;;;;;;;;;;5122594;28;20372;-80
2022/03/26 12:56:23;;;;;;;;;;;;;;;;;;5126157;28;19916;-79
2022/03/26 12:58:58;;;;;;;;;;;;;;;;;;5117540;28;19916;-78
2022/03/26 13:01:24;;;;;;;;;;;;;;;;;;5121405;28;19916;-79
2022/03/26 13:03:50;;;;;;;;;;;;;;;;;;5121017;28;19920;-79
2022/03/26 13:06:16;;;;;;;;;;;;;;;;;;5114931;28;20333;-76
2022/03/26 13:08:52;;;;;;;;;;;;;;;;;;5115231;28;20040;-76
2022/03/26 13:11:18;;;;;;;;;;;;;;;;;;5107293;28;20005;-76
2022/03/26 13:13:45;;;;;;;;;;;;;;;;;;5102788;28;19916;-76
2022/03/26 13:16:14;;;;;;;;;;;;;;;;;;5098589;27;19939;-76
2022/03/26 13:18:41;;;;;;;;;;;;;;;;;;5094692;28;19916;-76
2022/03/26 13:21:06;;;;;;;;;;;;;;;;;;5093359;28;20261;-75
2022/03/26 13:23:32;;;;;;;;;;;;;;;;;;5094146;28;20014;-76
2022/03/26 13:25:57;;;;;;;;;;;;;;;;;;5096934;28;19916;-76
2022/03/26 13:28:23;;;;;;;;;;;;;;;;;;5103911;28;19920;-77
2022/03/26 13:30:50;;;;;;;;;;;;;;;;;;5103297;28;19962;-75
2022/03/26 13:33:29;;;;;;;;;;;;;;;;;;5102451;28;19919;-77
2022/03/26 13:35:55;;;;;;;;;;;;;;;;;;5111750;28;20362;-76
2022/03/26 13:38:39;;;;;;;;;;;;;;;;;;5114448;28;19916;-77
2022/03/26 13:41:17;;;;;;;;;;;;;;;;;;5114786;28;20357;-77
2022/03/26 13:43:44;;;;;;;;;;;;;;;;;;5114264;28;19948;-77
2022/03/26 13:46:09;;;;;;;;;;;;;;;;;;5099204;27;20006;-78
2022/03/26 13:49:04;;;;;;;;;;;;;;;;;;5114540;28;19958;-77
2022/03/26 13:51:30;;;;;;;;;;;;;;;;;;5104953;28;19915;-76
2022/03/26 13:53:56;;;;;;;;;;;;;;;;;;5113343;28;19965;-76
2022/03/26 13:56:26;;;;;;;;;;;;;;;;;;5112819;28;20347;-76
2022/03/26 13:58:51;;;;;;;;;;;;;;;;;;5113049;28;19916;-76
2022/03/26 14:01:19;;;;;;;;;;;;;;;;;;5113111;28;19950;-76
2022/03/26 14:03:44;;;;;;;;;;;;;;;;;;5114359;28;19918;-76
2022/03/26 14:06:09;;;;;;;;;;;;;;;;;;5114405;28;19959;-76
2022/03/26 14:08:36;;;;;;;;;;;;;;;;;;5115113;28;19916;-77
2022/03/26 14:11:02;;;;;;;;;;;;;;;;;;5118265;28;19958;-76
2022/03/26 14:13:28;;;;;;;;;;;;;;;;;;5118424;28;20385;-76
2022/03/26 14:15:53;;;;;;;;;;;;;;;;;;5102164;28;20305;-76
2022/03/26 14:18:19;;;;;;;;;;;;;;;;;;5096772;28;19916;-76
2022/03/26 14:20:44;;;;;;;;;;;;;;;;;;5097932;28;20312;-75
2022/03/26 14:23:10;;;;;;;;;;;;;;;;;;5097453;28;20374;-75
2022/03/26 14:25:37;;;;;;;;;;;;;;;;;;5097589;28;19916;-76
2022/03/26 14:28:03;;;;;;;;;;;;;;;;;;5097757;28;19920;-76
2022/03/26 14:30:29;;;;;;;;;;;;;;;;;;5097568;28;19916;-76
2022/03/26 14:32:57;;;;;;;;;;;;;;;;;;5097637;28;19916;-76
2022/03/26 14:35:22;;;;;;;;;;;;;;;;;;5097463;28;19920;-75
2022/03/26 14:37:47;;;;;;;;;;;;;;;;;;5096462;28;20305;-76
2022/03/26 14:40:13;;;;;;;;;;;;;;;;;;5097212;28;19923;-78
2022/03/26 14:42:40;;;;;;;;;;;;;;;;;;5096852;28;21388;-76
2022/03/26 14:45:06;;;;;;;;;;;;;;;;;;5097225;28;19938;-77
2022/03/26 14:47:32;;;;;;;;;;;;;;;;;;5097093;28;19916;-78
2022/03/26 14:49:58;;;;;;;;;;;;;;;;;;5096072;28;19913;-76
2022/03/26 14:52:25;;;;;;;;;;;;;;;;;;5097481;27;19915;-76
2022/03/26 14:54:50;;;;;;;;;;;;;;;;;;5096980;28;20919;-76
2022/03/26 14:57:15;;;;;;;;;;;;;;;;;;5096772;28;19959;-76
2022/03/26 14:59:41;;;;;;;;;;;;;;;;;;5113236;28;20006;-76
2022/03/26 15:02:06;;;;;;;;;;;;;;;;;;5098520;28;19927;-76
2022/03/26 15:04:32;;;;;;;;;;;;;;;;;;5113142;28;19919;-76
2022/03/26 15:06:57;;;;;;;;;;;;;;;;;;5112588;28;19916;-76
2022/03/26 15:09:22;;;;;;;;;;;;;;;;;;5096765;28;19916;-78
2022/03/26 15:11:48;;;;;;;;;;;;;;;;;;5105628;28;19954;-76
2022/03/26 15:14:13;;;;;;;;;;;;;;;;;;5117120;28;19915;-76
2022/03/26 15:16:38;;;;;;;;;;;;;;;;;;5117046;28;19915;-76
2022/03/26 15:19:04;;;;;;;;;;;;;;;;;;5115637;28;19916;-77
2022/03/26 15:21:30;;;;;;;;;;;;;;;;;;5100873;28;19970;-76
2022/03/26 15:23:55;;;;;;;;;;;;;;;;;;5100426;28;20352;-76
2022/03/26 15:26:21;;;;;;;;;;;;;;;;;;5095348;28;19947;-75
2022/03/26 15:28:47;;;;;;;;;;;;;;;;;;5105104;28;19915;-76
2022/03/26 15:31:12;;;;;;;;;;;;;;;;;;5112807;28;19916;-76
2022/03/26 15:33:38;;;;;;;;;;;;;;;;;;5100315;28;19927;-76
2022/03/26 15:36:04;;;;;;;;;;;;;;;;;;5113852;28;19989;-77
2022/03/26 15:38:29;;;;;;;;;;;;;;;;;;5096104;28;20293;-78
2022/03/26 15:40:55;;;;;;;;;;;;;;;;;;5111833;28;19915;-76
2022/03/26 15:43:20;;;;;;;;;;;;;;;;;;5116753;28;20513;-75
2022/03/26 15:45:45;;;;;;;;;;;;;;;;;;5099447;28;19922;-75
2022/03/26 15:48:11;;;;;;;;;;;;;;;;;;5096015;28;19916;-75
2022/03/26 15:50:36;;;;;;;;;;;;;;;;;;5094963;28;19922;-76
2022/03/26 15:53:03;;;;;;;;;;;;;;;;;;5097060;28;19943;-76
2022/03/26 15:55:29;;;;;;;;;;;;;;;;;;5097451;28;20331;-77
2022/03/26 15:57:54;;;;;;;;;;;;;;;;;;5096564;28;19916;-76
2022/03/26 16:00:22;;;;;;;;;;;;;;;;;;5096041;28;19916;-76
2022/03/26 16:02:47;;;;;;;;;;;;;;;;;;5095863;28;20382;-77
2022/03/26 16:05:12;;;;;;;;;;;;;;;;;;5095906;28;19916;-76
2022/03/26 16:07:38;;;;;;;;;;;;;;;;;;5095818;28;19947;-77
2022/03/26 16:10:04;;;;;;;;;;;;;;;;;;5096709;28;20011;-77
2022/03/26 16:12:30;;;;;;;;;;;;;;;;;;5115083;28;20330;-76
2022/03/26 16:14:55;;;;;;;;;;;;;;;;;;5115940;27;20014;-76
2022/03/26 16:17:20;;;;;;;;;;;;;;;;;;5116208;27;19916;-77
2022/03/26 16:19:45;;;;;;;;;;;;;;;;;;5114797;28;19915;-76
2022/03/26 16:22:11;;;;;;;;;;;;;;;;;;5115743;28;19926;-76
2022/03/26 16:24:36;;;;;;;;;;;;;;;;;;5115822;28;20006;-78
2022/03/26 16:27:01;;;;;;;;;;;;;;;;;;5115924;28;20416;-76
2022/03/26 16:29:27;;;;;;;;;;;;;;;;;;5115894;28;20357;-76
2022/03/26 16:31:52;;;;;;;;;;;;;;;;;;5109899;28;19939;-76
2022/03/26 16:34:17;;;;;;;;;;;;;;;;;;5095211;28;20015;-76
2022/03/26 16:36:43;;;;;;;;;;;;;;;;;;5095237;28;20369;-76
2022/03/26 16:39:08;;;;;;;;;;;;;;;;;;5095339;28;20274;-77
2022/03/26 16:41:36;;;;;;;;;;;;;;;;;;5095133;28;20340;-77
2022/03/26 16:44:02;;;;;;;;;;;;;;;;;;5095335;28;19920;-76
2022/03/26 16:46:28;;;;;;;;;;;;;;;;;;5109672;27;19973;-76
2022/03/26 16:48:53;;;;;;;;;;;;;;;;;;5136176;27;20009;-76
2022/03/26 16:51:19;;;;;;;;;;;;;;;;;;5134544;27;20380;-77